首页
METAR-TAF:

METAR-TAF

机场 :

乌鲁木齐地窝堡国际机场

乌鲁木齐, 中华人民共和国

纬度: 43-54N, 经度: 087-28E, 海拔: 654米

当前天气观测

该预报发布于14分钟前的17:00 UTC
静风
温度 -15°C
湿度 78%
气压 1032 hPa
能見度: 2500

METAR: ZWWW 121700Z 00000MPS 2500 FU NSC M15/M18 Q1032 BECMG TL1750 3000 FU

时间: 23:14 (17:14 UTC)

预报

该预报发布于8小时和3分钟前的09:11 UTC
预报有效从12日的 12点(UTC)到 13日的 12点(UTC)
风速4节,风向
能見度: 2000
轻雾
成为
从 12日的 22点(UTC)到 12日的 23点(UTC)
能見度: 1200
轻雾
成为
从 13日的 03点(UTC)到 13日的 04点(UTC)
风速4节,风向
能見度: 2000
轻雾

TAF: ZWWW 120911Z 1212/1312 18002MPS 2000 BR NSC TXM08/09Z TNM16/23Z BECMG 1222/1223 1200 BR BECMG 1303/1304 36002MPS 2000 BR

超过4000个机场的气象观测和天气预报(METAR&TAF报告)。

可查询的气象台以黄色和红色小点在地图上表示。

将鼠标移到小点上方,可查看气象台名称。

然后点击查看天气观测和预报。

如需切换地图:点击带黑十字的绿色按钮放大地图;点击带横线的绿色按钮缩小地图;或者点击绿色箭头查看邻近地区的地图。


METAR-TAF: